Time;durP1;ratioP1;P1;durP2;ratioP2;P2;SDS_P1;SDS_P2;PMS_P1;PMS_P2;Temp;Humidity;BMP_temperature;BMP_pressure;BME280_temperature;BME280_humidity;BME280_pressure;Samples;Min_cycle;Max_cycle;Signal;HPM_P1;HPM_P2
2021/11/02 00:00:49;;;;;;;0.38;0.38;;;;;;;;;;5096039;28;20454;-89
2021/11/02 00:03:14;;;;;;;0.10;0.10;;;;;;;;;;5095920;28;20024;-89
2021/11/02 00:05:39;;;;;;;0.10;0.10;;;;;;;;;;5094204;28;20089;-89
2021/11/02 00:08:05;;;;;;;0.10;0.10;;;;;;;;;;5094043;28;20016;-89
2021/11/02 00:10:31;;;;;;;0.10;0.10;;;;;;;;;;5073638;28;20098;-89
2021/11/02 00:12:57;;;;;;;3.00;1.58;;;;;;;;;;5069684;28;20044;-88
2021/11/02 00:15:24;;;;;;;3.42;3.08;;;;;;;;;;5070940;28;20032;-88
2021/11/02 00:17:57;;;;;;;0.32;0.32;;;;;;;;;;5073380;28;20070;-88
2021/11/02 00:20:22;;;;;;;0.10;0.10;;;;;;;;;;5071127;28;20058;-88
2021/11/02 00:22:55;;;;;;;1.08;1.02;;;;;;;;;;5073254;28;20032;-88
2021/11/02 00:25:21;;;;;;;0.10;0.10;;;;;;;;;;5073370;28;20075;-88
2021/11/02 00:27:48;;;;;;;0.35;0.28;;;;;;;;;;5070411;28;20036;-88
2021/11/02 00:30:14;;;;;;;0.20;0.20;;;;;;;;;;5070787;28;20108;-89
2021/11/02 00:32:40;;;;;;;5.82;3.75;;;;;;;;;;5067612;28;20023;-89
2021/11/02 00:35:06;;;;;;;0.10;0.10;;;;;;;;;;5070213;28;20492;-88
2021/11/02 00:37:32;;;;;;;0.10;0.10;;;;;;;;;;5070365;28;20024;-89
2021/11/02 00:39:57;;;;;;;0.10;0.10;;;;;;;;;;5073139;28;20039;-89
2021/11/02 00:42:32;;;;;;;0.10;0.10;;;;;;;;;;5092666;28;20123;-89
2021/11/02 00:44:58;;;;;;;6.07;1.65;;;;;;;;;;5095412;28;20529;-89
2021/11/02 00:47:25;;;;;;;1.23;1.23;;;;;;;;;;5094689;28;20028;-89
2021/11/02 00:49:50;;;;;;;0.10;0.10;;;;;;;;;;5095524;28;20345;-89
2021/11/02 00:52:16;;;;;;;0.10;0.10;;;;;;;;;;5095715;28;20015;-90
2021/11/02 00:54:41;;;;;;;0.50;0.50;;;;;;;;;;5092042;28;20028;-89
2021/11/02 00:57:06;;;;;;;0.22;0.22;;;;;;;;;;5095609;28;20095;-90
2021/11/02 00:59:31;;;;;;;0.20;0.20;;;;;;;;;;5095654;28;20361;-89
2021/11/02 01:01:57;;;;;;;0.45;0.45;;;;;;;;;;5091463;28;20613;-90
2021/11/02 01:04:22;;;;;;;0.10;0.10;;;;;;;;;;5094841;28;20099;-89
2021/11/02 01:06:48;;;;;;;0.50;0.50;;;;;;;;;;5093146;28;20047;-90
2021/11/02 01:09:14;;;;;;;2.00;0.75;;;;;;;;;;5095275;28;20028;-89
2021/11/02 01:11:39;;;;;;;0.10;0.10;;;;;;;;;;5095327;28;20099;-89
2021/11/02 01:14:04;;;;;;;0.30;0.30;;;;;;;;;;5095231;28;20016;-89
2021/11/02 01:16:30;;;;;;;3.38;3.10;;;;;;;;;;5094706;28;20064;-89
2021/11/02 01:18:56;;;;;;;0.10;0.10;;;;;;;;;;5089819;28;20028;-89
2021/11/02 01:21:22;;;;;;;0.57;0.57;;;;;;;;;;5092806;28;20055;-89
2021/11/02 01:23:47;;;;;;;0.10;0.10;;;;;;;;;;5090868;28;20036;-89
2021/11/02 01:26:13;;;;;;;0.30;0.30;;;;;;;;;;5086243;28;20558;-88
2021/11/02 01:28:38;;;;;;;2.17;1.65;;;;;;;;;;5092085;28;20419;-89
2021/11/02 01:31:04;;;;;;;0.38;0.38;;;;;;;;;;5086778;28;20059;-89
2021/11/02 01:33:29;;;;;;;0.10;0.10;;;;;;;;;;5086945;28;20050;-89
2021/11/02 01:35:55;;;;;;;0.20;0.20;;;;;;;;;;5092239;28;20059;-89
2021/11/02 01:38:23;;;;;;;0.15;0.15;;;;;;;;;;5092629;28;20131;-89
2021/11/02 01:40:50;;;;;;;0.10;0.10;;;;;;;;;;5092202;28;20027;-89
2021/11/02 01:43:15;;;;;;;1.10;1.00;;;;;;;;;;5092381;28;20496;-90
2021/11/02 01:45:41;;;;;;;0.70;0.65;;;;;;;;;;5092182;28;20036;-89
2021/11/02 01:48:06;;;;;;;0.10;0.10;;;;;;;;;;5092399;28;20012;-90
2021/11/02 01:50:32;;;;;;;0.10;0.10;;;;;;;;;;5092506;28;20499;-89
2021/11/02 01:52:58;;;;;;;0.20;0.20;;;;;;;;;;5094130;28;20031;-90
2021/11/02 01:55:24;;;;;;;0.10;0.10;;;;;;;;;;5094207;28;20020;-90
2021/11/02 01:57:50;;;;;;;0.17;0.17;;;;;;;;;;5094583;28;20023;-89
2021/11/02 02:00:17;;;;;;;0.10;0.10;;;;;;;;;;5093868;28;20569;-89
2021/11/02 02:02:45;;;;;;;0.30;0.30;;;;;;;;;;5094266;28;20044;-89
2021/11/02 02:05:17;;;;;;;0.10;0.10;;;;;;;;;;5094629;28;20020;-89
2021/11/02 02:07:48;;;;;;;0.40;0.40;;;;;;;;;;5093955;28;20032;-87
2021/11/02 02:10:24;;;;;;;0.30;0.30;;;;;;;;;;5094138;28;20012;-89
2021/11/02 02:13:05;;;;;;;0.82;0.82;;;;;;;;;;5091922;28;20391;-88
2021/11/02 02:15:50;;;;;;;0.10;0.10;;;;;;;;;;5094178;28;20424;-89
2021/11/02 02:18:24;;;;;;;1.20;0.63;;;;;;;;;;5096826;28;20028;-89
2021/11/02 02:21:08;;;;;;;0.57;0.57;;;;;;;;;;5094256;28;20032;-89
2021/11/02 02:23:44;;;;;;;0.10;0.10;;;;;;;;;;5096708;28;20036;-90
2021/11/02 02:26:28;;;;;;;0.10;0.10;;;;;;;;;;5110058;28;20035;-89
2021/11/02 02:28:59;;;;;;;0.10;0.10;;;;;;;;;;5096474;28;20024;-90
2021/11/02 02:31:27;;;;;;;0.10;0.10;;;;;;;;;;5094654;28;20013;-90
2021/11/02 02:33:53;;;;;;;0.10;0.10;;;;;;;;;;5094015;28;20484;-90
2021/11/02 02:36:19;;;;;;;0.10;0.10;;;;;;;;;;5095664;28;20052;-90
2021/11/02 02:38:46;;;;;;;0.10;0.10;;;;;;;;;;5095810;28;20047;-89
2021/11/02 02:41:12;;;;;;;0.60;0.45;;;;;;;;;;5097617;28;20035;-90
2021/11/02 02:43:40;;;;;;;0.30;0.30;;;;;;;;;;5098447;28;20024;-90
2021/11/02 02:46:06;;;;;;;0.10;0.10;;;;;;;;;;5096160;28;20021;-90
2021/11/02 02:48:32;;;;;;;0.10;0.10;;;;;;;;;;5098158;28;20032;-89
2021/11/02 02:50:58;;;;;;;0.10;0.10;;;;;;;;;;5094796;28;20056;-89
2021/11/02 02:53:23;;;;;;;0.10;0.10;;;;;;;;;;5093268;28;20095;-89
2021/11/02 02:55:50;;;;;;;0.10;0.10;;;;;;;;;;5097476;28;20036;-89
2021/11/02 02:58:15;;;;;;;0.20;0.20;;;;;;;;;;5097973;28;20028;-89
2021/11/02 03:00:42;;;;;;;0.40;0.40;;;;;;;;;;5096950;28;20392;-90
2021/11/02 03:03:08;;;;;;;0.10;0.10;;;;;;;;;;5097801;28;20032;-89
2021/11/02 03:05:34;;;;;;;0.10;0.10;;;;;;;;;;5097154;28;20063;-89
2021/11/02 03:07:59;;;;;;;0.10;0.10;;;;;;;;;;5097156;28;20100;-89
2021/11/02 03:10:25;;;;;;;0.10;0.10;;;;;;;;;;5097410;28;20035;-90
2021/11/02 03:12:51;;;;;;;0.10;0.10;;;;;;;;;;5097383;28;20103;-90
2021/11/02 03:17:54;;;;;;;0.10;0.10;;;;;;;;;;5097545;28;20040;-90
2021/11/02 03:55:45;;;;;;;0.10;0.10;;;;;;;;;;5096749;28;20028;-90
2021/11/02 03:58:28;;;;;;;0.20;0.20;;;;;;;;;;5096796;28;20527;-90
2021/11/02 04:31:44;;;;;;;6.63;2.53;;;;;;;;;;5096655;28;20032;-90
2021/11/02 05:07:04;;;;;;;0.10;0.10;;;;;;;;;;5095659;28;20054;-91
2021/11/02 05:09:53;;;;;;;0.10;0.10;;;;;;;;;;5095248;28;20033;-91
2021/11/02 05:47:49;;;;;;;0.10;0.10;;;;;;;;;;5094775;28;20027;-90
2021/11/02 05:58:31;;;;;;;0.10;0.10;;;;;;;;;;5094586;28;20460;-90
2021/11/02 06:01:31;;;;;;;0.10;0.10;;;;;;;;;;5094840;28;20812;-90
2021/11/02 06:28:18;;;;;;;0.10;0.10;;;;;;;;;;5094596;28;20089;-91
2021/11/02 06:30:58;;;;;;;0.20;0.20;;;;;;;;;;5091304;28;20031;-90
2021/11/02 07:19:15;;;;;;;0.10;0.10;;;;;;;;;;5093700;28;20146;-89
2021/11/02 07:24:27;;;;;;;0.10;0.10;;;;;;;;;;5097602;28;19904;-91
2021/11/02 08:47:20;;;;;;;0.13;0.13;;;;;;;;;;5091914;28;20031;-81
2021/11/02 08:49:47;;;;;;;0.30;0.30;;;;;;;;;;5092763;28;20038;-81
2021/11/02 08:52:13;;;;;;;0.25;0.25;;;;;;;;;;5092023;28;20023;-80
2021/11/02 08:54:40;;;;;;;0.25;0.25;;;;;;;;;;5090964;28;20438;-80
2021/11/02 08:57:05;;;;;;;0.30;0.30;;;;;;;;;;5091565;28;20093;-81
2021/11/02 08:59:34;;;;;;;0.43;0.43;;;;;;;;;;5082115;28;20052;-81
2021/11/02 09:02:00;;;;;;;0.55;0.55;;;;;;;;;;5070353;28;20021;-80
2021/11/02 09:04:29;;;;;;;1.23;0.55;;;;;;;;;;5071591;28;20384;-80
2021/11/02 09:06:54;;;;;;;3.08;1.85;;;;;;;;;;5090290;28;20016;-80
2021/11/02 09:09:20;;;;;;;0.98;0.80;;;;;;;;;;5091031;28;20035;-81
2021/11/02 09:11:45;;;;;;;0.30;0.30;;;;;;;;;;5090120;28;20454;-80
2021/11/02 09:14:11;;;;;;;2.15;0.90;;;;;;;;;;5089744;28;20101;-80
2021/11/02 09:16:37;;;;;;;3.20;0.90;;;;;;;;;;5072580;28;20357;-80
2021/11/02 09:19:02;;;;;;;0.75;0.75;;;;;;;;;;5087521;28;20065;-79
2021/11/02 09:21:28;;;;;;;0.47;0.47;;;;;;;;;;5090830;28;20016;-80
2021/11/02 09:23:54;;;;;;;0.15;0.15;;;;;;;;;;5090841;28;20020;-79
2021/11/02 09:26:24;;;;;;;0.10;0.10;;;;;;;;;;5090948;28;20040;-79
2021/11/02 09:28:50;;;;;;;0.13;0.13;;;;;;;;;;5089208;28;20110;-80
2021/11/02 09:31:20;;;;;;;0.70;0.70;;;;;;;;;;5090938;28;20112;-79
2021/11/02 09:33:46;;;;;;;0.90;0.38;;;;;;;;;;5084688;28;20429;-79
2021/11/02 09:36:13;;;;;;;0.30;0.30;;;;;;;;;;5089307;28;20056;-80
2021/11/02 09:38:42;;;;;;;0.00;0.00;;;;;;;;;;5090409;28;20094;-79
2021/11/02 09:41:11;;;;;;;0.10;0.10;;;;;;;;;;5085759;28;20036;-79
2021/11/02 09:43:57;;;;;;;0.10;0.10;;;;;;;;;;5079294;28;20032;-80
2021/11/02 09:46:26;;;;;;;1.98;1.10;;;;;;;;;;5067790;28;20056;-80
2021/11/02 09:49:10;;;;;;;0.28;0.28;;;;;;;;;;5069454;28;20062;-80
2021/11/02 09:51:35;;;;;;;0.00;0.00;;;;;;;;;;5069406;28;20036;-79
2021/11/02 09:54:14;;;;;;;0.08;0.08;;;;;;;;;;5070092;28;20380;-79
2021/11/02 09:56:44;;;;;;;2.95;1.42;;;;;;;;;;5075311;28;20178;-80
2021/11/02 09:59:23;;;;;;;0.15;0.15;;;;;;;;;;5089973;28;20032;-79
2021/11/02 10:01:49;;;;;;;0.25;0.25;;;;;;;;;;5090388;28;20052;-79
2021/11/02 10:04:18;;;;;;;0.73;0.73;;;;;;;;;;5089300;28;20112;-79
2021/11/02 10:06:56;;;;;;;0.63;0.57;;;;;;;;;;5088552;28;20146;-79
2021/11/02 10:09:31;;;;;;;1.40;1.30;;;;;;;;;;5081929;28;20020;-80
2021/11/02 10:11:56;;;;;;;0.90;0.85;;;;;;;;;;5078299;28;20036;-79
2021/11/02 10:14:32;;;;;;;0.10;0.10;;;;;;;;;;5068457;28;20033;-79
2021/11/02 10:17:03;;;;;;;0.35;0.35;;;;;;;;;;5069442;28;20025;-79
2021/11/02 10:19:37;;;;;;;0.63;0.38;;;;;;;;;;5069730;28;20028;-79
2021/11/02 10:22:05;;;;;;;3.60;1.75;;;;;;;;;;5075736;28;20024;-81
2021/11/02 10:24:40;;;;;;;0.30;0.30;;;;;;;;;;5087816;28;20622;-79
2021/11/02 10:27:23;;;;;;;0.70;0.70;;;;;;;;;;5088933;28;20020;-80
2021/11/02 10:30:14;;;;;;;0.85;0.85;;;;;;;;;;5088421;28;20272;-79
2021/11/02 10:32:41;;;;;;;0.10;0.10;;;;;;;;;;5074225;28;20024;-79
2021/11/02 10:35:20;;;;;;;0.10;0.10;;;;;;;;;;5068786;28;20106;-79
2021/11/02 10:38:04;;;;;;;0.17;0.17;;;;;;;;;;5068439;28;20021;-79
2021/11/02 10:40:36;;;;;;;0.08;0.08;;;;;;;;;;5073032;28;20117;-79
2021/11/02 10:43:16;;;;;;;0.65;0.65;;;;;;;;;;5087787;28;20103;-79
2021/11/02 10:45:53;;;;;;;0.10;0.10;;;;;;;;;;5087657;28;20111;-79
2021/11/02 10:48:23;;;;;;;1.35;0.95;;;;;;;;;;5089027;28;20035;-79
2021/11/02 10:50:48;;;;;;;0.93;0.90;;;;;;;;;;5088197;28;20068;-79
2021/11/02 10:53:21;;;;;;;0.38;0.38;;;;;;;;;;5089727;28;20044;-79
2021/11/02 10:55:59;;;;;;;2.25;2.05;;;;;;;;;;5089722;28;20024;-80
2021/11/02 10:58:24;;;;;;;0.60;0.38;;;;;;;;;;5092856;28;20028;-80
2021/11/02 11:00:50;;;;;;;0.20;0.20;;;;;;;;;;5092776;28;20112;-79
2021/11/02 11:03:17;;;;;;;0.32;0.32;;;;;;;;;;5092959;28;20047;-79
2021/11/02 11:05:45;;;;;;;0.47;0.47;;;;;;;;;;5092374;28;20039;-79
2021/11/02 11:08:14;;;;;;;1.23;0.93;;;;;;;;;;5092648;28;20020;-80
2021/11/02 11:10:39;;;;;;;0.50;0.50;;;;;;;;;;5076951;28;20108;-80
2021/11/02 11:13:07;;;;;;;0.50;0.50;;;;;;;;;;5079348;28;20111;-80
2021/11/02 11:15:36;;;;;;;0.15;0.15;;;;;;;;;;5090509;28;20024;-80
2021/11/02 11:18:03;;;;;;;0.15;0.15;;;;;;;;;;5092513;28;20074;-80
2021/11/02 11:20:29;;;;;;;0.20;0.20;;;;;;;;;;5093034;28;20050;-80
2021/11/02 11:22:56;;;;;;;1.00;0.85;;;;;;;;;;5086840;28;20027;-80
2021/11/02 11:25:27;;;;;;;0.10;0.10;;;;;;;;;;5080138;28;20134;-80
2021/11/02 11:27:57;;;;;;;0.20;0.20;;;;;;;;;;5089773;28;20195;-80
2021/11/02 11:30:30;;;;;;;0.10;0.10;;;;;;;;;;5090570;28;20069;-79
2021/11/02 11:32:55;;;;;;;0.80;0.75;;;;;;;;;;5090104;28;20039;-79
2021/11/02 11:35:21;;;;;;;0.60;0.60;;;;;;;;;;5090755;28;20044;-79
2021/11/02 11:37:49;;;;;;;0.38;0.38;;;;;;;;;;5089123;28;20451;-79
2021/11/02 11:40:18;;;;;;;1.08;0.85;;;;;;;;;;5090736;28;20044;-79
2021/11/02 11:43:02;;;;;;;0.10;0.10;;;;;;;;;;5091472;28;20031;-79
2021/11/02 11:45:29;;;;;;;0.13;0.13;;;;;;;;;;5091518;28;20031;-80
2021/11/02 11:48:05;;;;;;;1.38;0.65;;;;;;;;;;5092092;28;20111;-80
2021/11/02 11:50:30;;;;;;;0.20;0.20;;;;;;;;;;5089664;28;20063;-80
2021/11/02 11:52:59;;;;;;;0.65;0.55;;;;;;;;;;5091614;28;20457;-80
2021/11/02 11:55:30;;;;;;;0.10;0.10;;;;;;;;;;5090304;28;20464;-80
2021/11/02 11:58:00;;;;;;;0.15;0.15;;;;;;;;;;5090687;28;20032;-80
2021/11/02 12:00:25;;;;;;;0.00;0.00;;;;;;;;;;5092122;28;20082;-80
2021/11/02 12:03:00;;;;;;;0.20;0.20;;;;;;;;;;5091932;28;20048;-80
2021/11/02 12:05:26;;;;;;;0.10;0.10;;;;;;;;;;5092071;28;20028;-79
2021/11/02 12:08:05;;;;;;;0.65;0.65;;;;;;;;;;5090239;28;20040;-80
2021/11/02 12:10:30;;;;;;;0.10;0.10;;;;;;;;;;5092044;28;20073;-80
2021/11/02 12:12:56;;;;;;;0.00;0.00;;;;;;;;;;5091151;28;20032;-79
2021/11/02 12:15:22;;;;;;;0.00;0.00;;;;;;;;;;5091969;28;20056;-81
2021/11/02 12:17:50;;;;;;;0.30;0.30;;;;;;;;;;5091812;28;20036;-80
2021/11/02 12:20:16;;;;;;;0.00;0.00;;;;;;;;;;5091643;28;20108;-79
2021/11/02 12:22:56;;;;;;;0.43;0.10;;;;;;;;;;5089888;28;20452;-80
2021/11/02 12:25:22;;;;;;;0.20;0.20;;;;;;;;;;5090213;28;20082;-80
2021/11/02 12:27:48;;;;;;;8.05;1.45;;;;;;;;;;5090869;28;20503;-79
2021/11/02 12:30:15;;;;;;;0.10;0.10;;;;;;;;;;5091792;28;20024;-80
2021/11/02 12:32:51;;;;;;;0.00;0.00;;;;;;;;;;5090918;28;20020;-80
2021/11/02 12:35:30;;;;;;;0.00;0.00;;;;;;;;;;5090528;28;20170;-79
2021/11/02 12:37:57;;;;;;;0.43;0.43;;;;;;;;;;5091566;28;20043;-80
2021/11/02 12:40:27;;;;;;;0.00;0.00;;;;;;;;;;5091840;28;20048;-80
2021/11/02 12:42:53;;;;;;;0.10;0.10;;;;;;;;;;5090119;28;20031;-79
2021/11/02 12:45:20;;;;;;;0.10;0.10;;;;;;;;;;5090729;28;20032;-80
2021/11/02 12:47:47;;;;;;;0.00;0.00;;;;;;;;;;5090952;28;20096;-79
2021/11/02 12:50:13;;;;;;;0.00;0.00;;;;;;;;;;5091181;28;20337;-80
2021/11/02 12:52:39;;;;;;;0.10;0.10;;;;;;;;;;5090646;28;20053;-80
2021/11/02 12:55:06;;;;;;;0.08;0.08;;;;;;;;;;5090625;28;20032;-80
2021/11/02 12:57:42;;;;;;;0.00;0.00;;;;;;;;;;5091161;28;20020;-81
2021/11/02 13:00:09;;;;;;;0.00;0.00;;;;;;;;;;5090998;28;20043;-80
2021/11/02 13:02:36;;;;;;;0.00;0.00;;;;;;;;;;5085070;28;20032;-80
2021/11/02 13:05:15;;;;;;;0.00;0.00;;;;;;;;;;5088575;28;20058;-80
2021/11/02 13:07:41;;;;;;;0.00;0.00;;;;;;;;;;5090272;28;20460;-80
2021/11/02 13:10:15;;;;;;;0.10;0.10;;;;;;;;;;5091748;28;20032;-81
2021/11/02 13:12:43;;;;;;;0.10;0.10;;;;;;;;;;5090963;28;20028;-80
2021/11/02 13:15:11;;;;;;;0.50;0.50;;;;;;;;;;5090345;28;20364;-80
2021/11/02 13:17:42;;;;;;;0.00;0.00;;;;;;;;;;5091686;28;20056;-79
2021/11/02 13:20:12;;;;;;;1.70;0.70;;;;;;;;;;5090674;28;20052;-81
2021/11/02 13:22:38;;;;;;;0.90;0.75;;;;;;;;;;5091727;28;20039;-80
2021/11/02 13:25:06;;;;;;;0.13;0.13;;;;;;;;;;5090794;28;20028;-80
2021/11/02 13:27:42;;;;;;;0.10;0.10;;;;;;;;;;5090450;28;20035;-80
2021/11/02 13:30:26;;;;;;;0.03;0.03;;;;;;;;;;5090771;28;20063;-80
2021/11/02 13:33:02;;;;;;;0.25;0.25;;;;;;;;;;5083816;28;20425;-79
2021/11/02 13:35:46;;;;;;;0.10;0.10;;;;;;;;;;5070236;28;20048;-80
2021/11/02 13:38:23;;;;;;;0.10;0.10;;;;;;;;;;5070087;28;20028;-80
2021/11/02 13:40:49;;;;;;;0.00;0.00;;;;;;;;;;5070378;28;20044;-80
2021/11/02 13:43:35;;;;;;;0.13;0.13;;;;;;;;;;5069114;28;20397;-80
2021/11/02 13:46:01;;;;;;;2.63;2.08;;;;;;;;;;5069819;28;20111;-80
2021/11/02 13:48:27;;;;;;;0.10;0.10;;;;;;;;;;5069970;28;20166;-80
2021/11/02 13:50:53;;;;;;;0.05;0.05;;;;;;;;;;5070638;28;20107;-80
2021/11/02 13:53:19;;;;;;;0.00;0.00;;;;;;;;;;5070236;28;20360;-80
2021/11/02 13:55:45;;;;;;;0.63;0.52;;;;;;;;;;5069970;28;20033;-80
2021/11/02 13:58:11;;;;;;;0.00;0.00;;;;;;;;;;5069829;28;20060;-80
2021/11/02 14:00:36;;;;;;;0.03;0.03;;;;;;;;;;5068979;28;20125;-79
2021/11/02 14:03:07;;;;;;;0.05;0.05;;;;;;;;;;5069650;28;20029;-81
2021/11/02 14:05:33;;;;;;;0.00;0.00;;;;;;;;;;5069683;28;20032;-80
2021/11/02 14:07:58;;;;;;;0.00;0.00;;;;;;;;;;5066215;28;20035;-80
2021/11/02 14:10:30;;;;;;;0.40;0.40;;;;;;;;;;5074183;28;20463;-80
2021/11/02 14:12:55;;;;;;;0.68;0.68;;;;;;;;;;5089349;28;20036;-80
2021/11/02 14:15:22;;;;;;;0.20;0.20;;;;;;;;;;5089026;28;20027;-80
2021/11/02 14:18:09;;;;;;;0.15;0.15;;;;;;;;;;5088996;28;20372;-80
2021/11/02 14:20:35;;;;;;;0.30;0.30;;;;;;;;;;5089823;28;20075;-80
2021/11/02 14:23:00;;;;;;;0.00;0.00;;;;;;;;;;5089030;28;20432;-80
2021/11/02 14:25:36;;;;;;;0.30;0.30;;;;;;;;;;5089495;28;20039;-80
2021/11/02 14:28:01;;;;;;;0.03;0.03;;;;;;;;;;5088989;28;20039;-80
2021/11/02 14:30:32;;;;;;;0.00;0.00;;;;;;;;;;5088460;28;20470;-80
2021/11/02 14:32:58;;;;;;;0.10;0.10;;;;;;;;;;5093461;28;20039;-80
2021/11/02 14:35:42;;;;;;;0.00;0.00;;;;;;;;;;5082883;28;20048;-80
2021/11/02 14:38:30;;;;;;;0.95;0.95;;;;;;;;;;5073879;28;20028;-80
2021/11/02 14:40:57;;;;;;;0.20;0.20;;;;;;;;;;5069175;28;20056;-80
2021/11/02 14:43:26;;;;;;;0.00;0.00;;;;;;;;;;5073412;28;20465;-80
2021/11/02 14:45:53;;;;;;;6.18;1.17;;;;;;;;;;5073432;28;20059;-80
2021/11/02 14:48:24;;;;;;;3.90;0.85;;;;;;;;;;5073244;28;20033;-80
2021/11/02 14:50:50;;;;;;;0.20;0.20;;;;;;;;;;5072805;28;20028;-80
2021/11/02 14:53:26;;;;;;;0.10;0.10;;;;;;;;;;5073306;28;20049;-80
2021/11/02 14:55:52;;;;;;;0.10;0.10;;;;;;;;;;5073023;28;20101;-79
2021/11/02 14:58:36;;;;;;;0.30;0.30;;;;;;;;;;5073055;28;20032;-80
2021/11/02 15:01:01;;;;;;;0.30;0.30;;;;;;;;;;5072210;28;20045;-79
2021/11/02 15:03:33;;;;;;;0.30;0.30;;;;;;;;;;5073507;28;20050;-80
2021/11/02 15:06:02;;;;;;;1.50;1.10;;;;;;;;;;5072934;28;20024;-79
2021/11/02 15:08:29;;;;;;;0.10;0.10;;;;;;;;;;5073045;28;20085;-80
2021/11/02 15:10:54;;;;;;;0.30;0.30;;;;;;;;;;5072403;28;20530;-80
2021/11/02 15:13:20;;;;;;;0.20;0.20;;;;;;;;;;5072859;28;20025;-80
2021/11/02 15:15:46;;;;;;;0.10;0.10;;;;;;;;;;5072748;28;20523;-80
2021/11/02 15:18:13;;;;;;;0.13;0.13;;;;;;;;;;5072593;28;20111;-80
2021/11/02 15:20:38;;;;;;;0.28;0.28;;;;;;;;;;5071881;28;20029;-80
2021/11/02 15:23:04;;;;;;;0.28;0.28;;;;;;;;;;5072502;28;20043;-80
2021/11/02 15:25:29;;;;;;;0.10;0.10;;;;;;;;;;5072789;28;20035;-80
2021/11/02 15:28:03;;;;;;;0.00;0.00;;;;;;;;;;5072922;28;20020;-80
2021/11/02 15:30:28;;;;;;;0.35;0.32;;;;;;;;;;5072230;28;20024;-80
2021/11/02 15:32:54;;;;;;;2.20;2.00;;;;;;;;;;5079880;28;20051;-80
2021/11/02 15:35:20;;;;;;;0.00;0.00;;;;;;;;;;5092255;28;20051;-80
2021/11/02 15:37:56;;;;;;;0.10;0.10;;;;;;;;;;5092671;28;20075;-80
2021/11/02 15:40:29;;;;;;;0.75;0.75;;;;;;;;;;5092162;28;20050;-80
2021/11/02 15:42:56;;;;;;;0.10;0.10;;;;;;;;;;5092025;28;20024;-80
2021/11/02 15:45:23;;;;;;;0.10;0.10;;;;;;;;;;5091966;28;20063;-80
2021/11/02 15:47:51;;;;;;;0.10;0.10;;;;;;;;;;5088645;28;20024;-80
2021/11/02 15:50:18;;;;;;;0.00;0.00;;;;;;;;;;5092388;28;20035;-80
2021/11/02 15:52:43;;;;;;;0.10;0.10;;;;;;;;;;5092267;28;20043;-80
2021/11/02 15:55:14;;;;;;;0.10;0.10;;;;;;;;;;5092314;28;20028;-80
2021/11/02 15:57:41;;;;;;;2.45;1.13;;;;;;;;;;5092372;28;20035;-80
2021/11/02 16:00:07;;;;;;;0.00;0.00;;;;;;;;;;5075127;28;20059;-80
2021/11/02 16:02:33;;;;;;;0.10;0.10;;;;;;;;;;5071874;28;20392;-80
2021/11/02 16:05:05;;;;;;;0.10;0.10;;;;;;;;;;5071892;28;20059;-80
2021/11/02 16:07:31;;;;;;;0.22;0.22;;;;;;;;;;5071529;28;20032;-80
2021/11/02 16:09:56;;;;;;;0.68;0.68;;;;;;;;;;5071513;28;20031;-80
2021/11/02 16:12:33;;;;;;;0.75;0.35;;;;;;;;;;5070958;28;20024;-80
2021/11/02 16:15:09;;;;;;;5.80;0.68;;;;;;;;;;5070514;28;20506;-80
2021/11/02 16:17:39;;;;;;;0.45;0.45;;;;;;;;;;5070899;28;20586;-80
2021/11/02 16:20:05;;;;;;;0.10;0.10;;;;;;;;;;5071051;28;20041;-80
2021/11/02 16:22:30;;;;;;;0.10;0.10;;;;;;;;;;5071295;28;20020;-80
2021/11/02 16:25:06;;;;;;;9.68;0.52;;;;;;;;;;5070781;28;20541;-80
2021/11/02 16:27:31;;;;;;;0.10;0.10;;;;;;;;;;5071040;28;20491;-80
2021/11/02 16:29:57;;;;;;;0.00;0.00;;;;;;;;;;5071406;28;20028;-80
2021/11/02 16:32:27;;;;;;;0.00;0.00;;;;;;;;;;5073809;28;20090;-80
2021/11/02 16:34:53;;;;;;;0.20;0.20;;;;;;;;;;5091508;28;20054;-80
2021/11/02 16:37:35;;;;;;;0.13;0.13;;;;;;;;;;5091124;28;20063;-80
2021/11/02 16:40:19;;;;;;;0.10;0.10;;;;;;;;;;5091825;28;20040;-80
2021/11/02 16:42:58;;;;;;;1.60;1.30;;;;;;;;;;5090854;28;20024;-80
2021/11/02 16:45:28;;;;;;;0.10;0.10;;;;;;;;;;5091517;28;20032;-80
2021/11/02 16:47:58;;;;;;;0.10;0.10;;;;;;;;;;5091898;28;20456;-80
2021/11/02 16:50:35;;;;;;;0.38;0.38;;;;;;;;;;5092075;28;20035;-80
2021/11/02 16:53:15;;;;;;;0.30;0.30;;;;;;;;;;5090999;28;20032;-80
2021/11/02 16:55:41;;;;;;;0.00;0.00;;;;;;;;;;5090845;28;20124;-80
2021/11/02 16:58:19;;;;;;;0.20;0.20;;;;;;;;;;5091286;28;20491;-80
2021/11/02 17:00:45;;;;;;;0.10;0.10;;;;;;;;;;5091416;28;20050;-79
2021/11/02 17:03:13;;;;;;;0.45;0.45;;;;;;;;;;5091313;28;20476;-80
2021/11/02 17:05:39;;;;;;;0.10;0.10;;;;;;;;;;5091336;28;20113;-79
2021/11/02 17:08:09;;;;;;;0.10;0.10;;;;;;;;;;5091315;28;20027;-79
2021/11/02 17:10:41;;;;;;;0.10;0.10;;;;;;;;;;5091231;28;20036;-80
2021/11/02 17:13:13;;;;;;;0.10;0.10;;;;;;;;;;5091065;28;20047;-79
2021/11/02 17:15:38;;;;;;;0.10;0.10;;;;;;;;;;5090708;28;20019;-81
2021/11/02 17:18:05;;;;;;;0.30;0.30;;;;;;;;;;5091169;28;20028;-81
2021/11/02 17:20:31;;;;;;;0.10;0.10;;;;;;;;;;5090846;28;20028;-81
2021/11/02 17:22:56;;;;;;;0.10;0.10;;;;;;;;;;5090530;28;20051;-81
2021/11/02 17:25:22;;;;;;;0.20;0.20;;;;;;;;;;5089622;28;20472;-81
2021/11/02 17:27:48;;;;;;;0.10;0.10;;;;;;;;;;5090371;28;20017;-81
2021/11/02 17:30:24;;;;;;;0.10;0.10;;;;;;;;;;5086539;28;20123;-82
2021/11/02 17:32:51;;;;;;;0.25;0.25;;;;;;;;;;5089052;28;20480;-81
2021/11/02 17:35:16;;;;;;;0.10;0.10;;;;;;;;;;5089454;28;20044;-81
2021/11/02 17:37:44;;;;;;;0.10;0.10;;;;;;;;;;5090369;28;20400;-81
2021/11/02 17:40:10;;;;;;;0.10;0.10;;;;;;;;;;5090281;28;20468;-81
2021/11/02 17:42:37;;;;;;;0.10;0.10;;;;;;;;;;5089989;28;20048;-81
2021/11/02 17:45:02;;;;;;;0.10;0.10;;;;;;;;;;5089671;28;20039;-81
2021/11/02 17:47:28;;;;;;;0.45;0.45;;;;;;;;;;5089714;28;20020;-81
2021/11/02 17:49:53;;;;;;;0.10;0.10;;;;;;;;;;5089708;28;20028;-81
2021/11/02 17:52:18;;;;;;;0.10;0.10;;;;;;;;;;5090173;28;20036;-81
2021/11/02 17:54:44;;;;;;;0.10;0.10;;;;;;;;;;5090093;28;20074;-81
2021/11/02 17:57:09;;;;;;;0.10;0.10;;;;;;;;;;5088451;28;20024;-81
2021/11/02 17:59:36;;;;;;;0.10;0.10;;;;;;;;;;5089224;28;20040;-81
2021/11/02 18:02:03;;;;;;;0.10;0.10;;;;;;;;;;5089742;28;20032;-81
2021/11/02 18:04:30;;;;;;;0.10;0.10;;;;;;;;;;5090455;28;20024;-81
2021/11/02 18:06:55;;;;;;;0.10;0.10;;;;;;;;;;5089439;28;20028;-81
2021/11/02 18:09:21;;;;;;;0.10;0.10;;;;;;;;;;5088714;28;20016;-80
2021/11/02 18:11:46;;;;;;;0.10;0.10;;;;;;;;;;5089308;28;20111;-80
2021/11/02 18:14:12;;;;;;;0.10;0.10;;;;;;;;;;5090270;28;20036;-81
2021/11/02 18:16:38;;;;;;;0.10;0.10;;;;;;;;;;5089579;28;20345;-82
2021/11/02 18:19:05;;;;;;;0.10;0.10;;;;;;;;;;5090739;28;20035;-81
2021/11/02 18:21:30;;;;;;;0.10;0.10;;;;;;;;;;5089045;28;20499;-81
2021/11/02 18:23:59;;;;;;;0.10;0.10;;;;;;;;;;5089801;28;20023;-81
2021/11/02 18:26:24;;;;;;;0.10;0.10;;;;;;;;;;5089232;28;20383;-81
2021/11/02 18:28:51;;;;;;;0.65;0.65;;;;;;;;;;5088251;28;20040;-80
2021/11/02 18:31:17;;;;;;;0.10;0.10;;;;;;;;;;5089053;28;20044;-81
2021/11/02 18:33:42;;;;;;;0.10;0.10;;;;;;;;;;5090325;28;20101;-80
2021/11/02 18:36:09;;;;;;;3.50;1.33;;;;;;;;;;5090087;28;20492;-81
2021/11/02 18:38:36;;;;;;;1.08;0.55;;;;;;;;;;5093809;28;20020;-80
2021/11/02 18:41:02;;;;;;;0.47;0.47;;;;;;;;;;5093287;28;20043;-80
2021/11/02 18:43:35;;;;;;;0.10;0.10;;;;;;;;;;5093053;28;20479;-80
2021/11/02 18:46:02;;;;;;;0.10;0.10;;;;;;;;;;5093648;28;20074;-80
2021/11/02 18:48:28;;;;;;;0.17;0.17;;;;;;;;;;5093342;28;20063;-80
2021/11/02 18:50:54;;;;;;;0.80;0.80;;;;;;;;;;5093306;28;20063;-80
2021/11/02 18:53:19;;;;;;;0.68;0.68;;;;;;;;;;5092998;28;20020;-80
2021/11/02 18:55:45;;;;;;;0.10;0.10;;;;;;;;;;5093256;28;20460;-80
2021/11/02 18:58:10;;;;;;;0.10;0.10;;;;;;;;;;5093036;28;20070;-80
2021/11/02 19:00:35;;;;;;;0.10;0.10;;;;;;;;;;5093132;28;20464;-80
2021/11/02 19:03:01;;;;;;;0.10;0.10;;;;;;;;;;5093209;28;20020;-80
2021/11/02 19:05:26;;;;;;;0.73;0.68;;;;;;;;;;5093425;28;20066;-80
2021/11/02 19:07:52;;;;;;;0.10;0.10;;;;;;;;;;5093029;28;20021;-80
2021/11/02 19:10:18;;;;;;;0.55;0.55;;;;;;;;;;5082497;28;20024;-80
2021/11/02 19:12:44;;;;;;;0.10;0.10;;;;;;;;;;5071266;28;20064;-80
2021/11/02 19:15:09;;;;;;;0.20;0.20;;;;;;;;;;5071642;28;20468;-80
2021/11/02 19:17:36;;;;;;;0.10;0.10;;;;;;;;;;5073454;28;20056;-80
2021/11/02 19:20:01;;;;;;;0.10;0.10;;;;;;;;;;5094498;28;20058;-80
2021/11/02 19:22:27;;;;;;;0.10;0.10;;;;;;;;;;5087986;28;20452;-80
2021/11/02 19:24:52;;;;;;;0.10;0.10;;;;;;;;;;5071591;28;20636;-80
2021/11/02 19:27:17;;;;;;;0.10;0.10;;;;;;;;;;5070370;28;20066;-81
2021/11/02 19:29:43;;;;;;;1.20;1.10;;;;;;;;;;5074092;28;20427;-80
2021/11/02 19:32:08;;;;;;;0.15;0.15;;;;;;;;;;5075365;28;20035;-80
2021/11/02 19:34:34;;;;;;;0.43;0.43;;;;;;;;;;5095421;28;20439;-81
2021/11/02 19:37:01;;;;;;;0.50;0.50;;;;;;;;;;5094510;28;20130;-80
2021/11/02 19:39:27;;;;;;;0.20;0.20;;;;;;;;;;5095308;28;20042;-80
2021/11/02 19:41:52;;;;;;;2.28;1.60;;;;;;;;;;5095814;28;20107;-80
2021/11/02 19:44:17;;;;;;;0.10;0.10;;;;;;;;;;5095925;28;20016;-80
2021/11/02 19:46:43;;;;;;;0.10;0.10;;;;;;;;;;5088813;28;20032;-79
2021/11/02 19:49:08;;;;;;;0.10;0.10;;;;;;;;;;5081871;28;20107;-80
2021/11/02 19:51:34;;;;;;;0.10;0.10;;;;;;;;;;5086421;28;20058;-80